Bonaire, Bonaire

12:21 AM AST op 26 oktober 2014 (GMT -0400)
Nikiboko | Change Station
CLOSE
Current Station
Persoonlijk weerstation
Location: Bonaire, Bonaire
Geometrische hoogte: 33 ft
Nabije weerstations

Hoogte 33 ft 12.15 °N, 68.27 °W | Updated 12 minutes ago

Scattered Clouds
Licht bewolkt
82.2 °F
Voelt als 91 °F
N
3.0
Wind Variabel Wind van ONO
Gusts 5.0 mijl/u

Vandaag
Hoog -- | Laag -- °F
--% Kans op neerslag
Gisteren
Hoog -- | Laag -- °F
Precip. -- inches
6:24 AM 6:09 PM
Wassende halvemaan, 6% visible
Druk 29.83 inches
Zicht 6.2 mijlen
Wolken Licht bewolkt 1600 ft
Warmteindex 91 °F
Dauwpunt 77 °F
Vochtigheid 85%
Neerslag 0.00 inches
Dikte sneeuw Niet beschikbaar.
UV 0 van de 12
Pollen Niet beschikbaar.
Luchtkwaliteit Niet beschikbaar.
Flu Activity Niet beschikbaar.
METAR TNCC 260400Z 13006KT 9999 SCT016 28/24 Q1010 NOSIG

More Conditions Fewer Conditions

Druk 29.83 inches
Zicht 6.2 mijlen
Wolken Licht bewolkt 1600 ft
Warmteindex 91 °F
Dauwpunt 77 °F
Vochtigheid 85%
Neerslag 0.00 inches
Dikte sneeuw Niet beschikbaar.
UV 0 van de 12
Pollen Niet beschikbaar.
Luchtkwaliteit Niet beschikbaar.
Flu Activity Niet beschikbaar.
METAR TNCC 260400Z 13006KT 9999 SCT016 28/24 Q1010 NOSIG

More Conditions Fewer Conditions

10-Day Weather Forecast

Almanac

Astronomie

Oct. 26, 2014 Opkomst Ondergang
Werkelijke tijd 6:24 AM AST 6:09 PM AST
Burgerlijke schemering 6:02 AM AST 6:31 PM AST
Nautische schemering 5:37 AM AST 6:56 PM AST
Astronomische schemering 5:12 AM AST 7:21 PM AST
Maan 8:42 AM AST 8:35 PM AST
Golflengte van het zichtbare licht 12h 28m
Daglengte
11h 44m
Tomorrow will be 0m 36s shorter.
Wassende halvemaan, 6% of the Moon is Illuminated
Vandaag
Wassende halvemaan
oktober 30
Eerste kwartier
nov 6
Volle maan
nov 14
Laatste kwartier
nov 22
Nieuw

Extremen gisteren

Country Highs Country Lows

Community

WunderPhotos

Upload Photos

1,765,110 foto’s ge-upload!

Nearby

Luchtkwaliteit

Not available.

Dikte sneeuw

Not available.

Aardbevingen

Stad Distance Mag. Time & Date
No recent earthquake activity has been reported nearby.
Minimum magnitude displayed is 2.5.

Watertemperatuur langs de kust

Plaats Temperatuur
Geen meldingen van stations

Nabije weerstations